sensor_id;sensor_type;location;lat;lon;timestamp;pressure;altitude;pressure_sealevel;temperature;humidity
77013;BME280;67260;53.130;17.982;2023-07-30T00:00:02;100276.04;;;16.61;96.80
77013;BME280;67260;53.130;17.982;2023-07-30T00:02:30;100287.71;;;16.65;96.87
77013;BME280;67260;53.130;17.982;2023-07-30T00:04:56;100290.26;;;16.68;96.97
77013;BME280;67260;53.130;17.982;2023-07-30T00:07:23;100292.44;;;16.66;96.70
77013;BME280;67260;53.130;17.982;2023-07-30T00:09:50;100291.75;;;16.67;96.72
77013;BME280;67260;53.130;17.982;2023-07-30T00:12:17;100293.77;;;16.70;96.90
77013;BME280;67260;53.130;17.982;2023-07-30T00:15:19;100298.63;;;16.77;97.12
77013;BME280;67260;53.130;17.982;2023-07-30T00:18:27;100300.88;;;16.76;96.92
77013;BME280;67260;53.130;17.982;2023-07-30T00:20:54;100302.14;;;16.73;96.65
77013;BME280;67260;53.130;17.982;2023-07-30T00:23:24;100304.06;;;16.71;96.63
77013;BME280;67260;53.130;17.982;2023-07-30T00:25:50;100304.45;;;16.72;96.69
77013;BME280;67260;53.130;17.982;2023-07-30T00:28:17;100308.81;;;16.67;96.40
77013;BME280;67260;53.130;17.982;2023-07-30T00:30:46;100307.34;;;16.66;96.58
77013;BME280;67260;53.130;17.982;2023-07-30T00:33:13;100307.96;;;16.61;96.51
77013;BME280;67260;53.130;17.982;2023-07-30T00:35:46;100307.25;;;16.59;96.55
77013;BME280;67260;53.130;17.982;2023-07-30T00:38:19;100306.71;;;16.59;96.81
77013;BME280;67260;53.130;17.982;2023-07-30T00:40:46;100311.70;;;16.60;96.71
77013;BME280;67260;53.130;17.982;2023-07-30T00:43:12;100315.14;;;16.60;96.63
77013;BME280;67260;53.130;17.982;2023-07-30T00:45:42;100318.52;;;16.59;96.73
77013;BME280;67260;53.130;17.982;2023-07-30T00:48:10;100318.15;;;16.62;96.79
77013;BME280;67260;53.130;17.982;2023-07-30T00:50:46;100320.84;;;16.64;96.71
77013;BME280;67260;53.130;17.982;2023-07-30T00:53:21;100323.34;;;16.61;96.52
77013;BME280;67260;53.130;17.982;2023-07-30T00:55:49;100329.02;;;16.53;96.12
77013;BME280;67260;53.130;17.982;2023-07-30T00:58:23;100330.80;;;16.53;96.47
77013;BME280;67260;53.130;17.982;2023-07-30T01:00:51;100330.00;;;16.54;96.68
77013;BME280;67260;53.130;17.982;2023-07-30T01:03:19;100329.05;;;16.56;96.91
77013;BME280;67260;53.130;17.982;2023-07-30T01:05:47;100327.52;;;16.58;96.77
77013;BME280;67260;53.130;17.982;2023-07-30T01:08:14;100324.34;;;16.57;96.75
77013;BME280;67260;53.130;17.982;2023-07-30T01:10:44;100323.50;;;16.59;96.85
77013;BME280;67260;53.130;17.982;2023-07-30T01:13:15;100324.15;;;16.62;96.92
77013;BME280;67260;53.130;17.982;2023-07-30T01:15:43;100325.64;;;16.66;96.95
77013;BME280;67260;53.130;17.982;2023-07-30T01:18:10;100327.89;;;16.65;96.90
77013;BME280;67260;53.130;17.982;2023-07-30T01:20:37;100330.09;;;16.66;96.76
77013;BME280;67260;53.130;17.982;2023-07-30T01:23:11;100328.33;;;16.66;96.87
77013;BME280;67260;53.130;17.982;2023-07-30T01:25:46;100327.17;;;16.63;96.80
77013;BME280;67260;53.130;17.982;2023-07-30T01:28:20;100327.58;;;16.66;97.07
77013;BME280;67260;53.130;17.982;2023-07-30T01:30:56;100323.21;;;16.71;97.34
77013;BME280;67260;53.130;17.982;2023-07-30T01:33:23;100317.50;;;16.67;96.96
77013;BME280;67260;53.130;17.982;2023-07-30T01:35:50;100317.58;;;16.64;96.83
77013;BME280;67260;53.130;17.982;2023-07-30T01:38:23;100319.14;;;16.58;96.73
77013;BME280;67260;53.130;17.982;2023-07-30T01:40:51;100321.59;;;16.56;96.73
77013;BME280;67260;53.130;17.982;2023-07-30T01:43:21;100317.23;;;16.54;96.80
77013;BME280;67260;53.130;17.982;2023-07-30T01:45:50;100319.84;;;16.52;96.80
77013;BME280;67260;53.130;17.982;2023-07-30T01:48:17;100322.54;;;16.55;97.27
77013;BME280;67260;53.130;17.982;2023-07-30T01:50:48;100315.76;;;16.57;97.19
77013;BME280;67260;53.130;17.982;2023-07-30T01:53:15;100322.15;;;16.58;97.32
77013;BME280;67260;53.130;17.982;2023-07-30T01:55:43;100321.72;;;16.58;97.37
77013;BME280;67260;53.130;17.982;2023-07-30T01:58:16;100323.16;;;16.58;97.26
77013;BME280;67260;53.130;17.982;2023-07-30T02:00:44;100322.95;;;16.53;96.84
77013;BME280;67260;53.130;17.982;2023-07-30T02:03:12;100324.85;;;16.48;96.72
77013;BME280;67260;53.130;17.982;2023-07-30T02:05:40;100326.30;;;16.49;97.06
77013;BME280;67260;53.130;17.982;2023-07-30T02:08:06;100329.30;;;16.48;97.05
77013;BME280;67260;53.130;17.982;2023-07-30T02:10:37;100328.77;;;16.49;97.17
77013;BME280;67260;53.130;17.982;2023-07-30T02:13:12;100331.58;;;16.51;97.27
77013;BME280;67260;53.130;17.982;2023-07-30T02:15:40;100332.21;;;16.55;97.57
77013;BME280;67260;53.130;17.982;2023-07-30T02:18:08;100334.42;;;16.57;97.40
77013;BME280;67260;53.130;17.982;2023-07-30T02:20:49;100337.74;;;16.58;97.31
77013;BME280;67260;53.130;17.982;2023-07-30T02:23:16;100339.39;;;16.55;97.25
77013;BME280;67260;53.130;17.982;2023-07-30T02:25:42;100345.08;;;16.55;97.41
77013;BME280;67260;53.130;17.982;2023-07-30T02:28:10;100346.42;;;16.55;97.18
77013;BME280;67260;53.130;17.982;2023-07-30T02:30:51;100347.48;;;16.53;97.29
77013;BME280;67260;53.130;17.982;2023-07-30T02:33:48;100343.94;;;16.54;97.41
77013;BME280;67260;53.130;17.982;2023-07-30T02:36:27;100343.95;;;16.55;97.42
77013;BME280;67260;53.130;17.982;2023-07-30T02:38:54;100347.08;;;16.56;97.63
77013;BME280;67260;53.130;17.982;2023-07-30T02:41:21;100349.79;;;16.54;97.51
77013;BME280;67260;53.130;17.982;2023-07-30T02:43:47;100346.79;;;16.55;97.55
77013;BME280;67260;53.130;17.982;2023-07-30T02:46:14;100350.77;;;16.57;97.66
77013;BME280;67260;53.130;17.982;2023-07-30T02:49:09;100348.94;;;16.61;97.87
77013;BME280;67260;53.130;17.982;2023-07-30T02:51:38;100350.66;;;16.62;97.73
77013;BME280;67260;53.130;17.982;2023-07-30T02:54:05;100347.59;;;16.67;97.77
77013;BME280;67260;53.130;17.982;2023-07-30T02:56:32;100350.84;;;16.70;97.65
77013;BME280;67260;53.130;17.982;2023-07-30T02:58:59;100350.57;;;16.70;97.56
77013;BME280;67260;53.130;17.982;2023-07-30T03:01:27;100353.67;;;16.71;97.56
77013;BME280;67260;53.130;17.982;2023-07-30T03:03:54;100350.40;;;16.70;97.46
77013;BME280;67260;53.130;17.982;2023-07-30T03:06:20;100347.67;;;16.70;97.61
77013;BME280;67260;53.130;17.982;2023-07-30T03:08:47;100343.91;;;16.69;97.37
77013;BME280;67260;53.130;17.982;2023-07-30T03:11:14;100344.07;;;16.69;97.45
77013;BME280;67260;53.130;17.982;2023-07-30T03:13:49;100343.13;;;16.73;97.65
77013;BME280;67260;53.130;17.982;2023-07-30T03:16:19;100347.79;;;16.78;97.98
77013;BME280;67260;53.130;17.982;2023-07-30T03:18:58;100343.70;;;16.83;98.03
77013;BME280;67260;53.130;17.982;2023-07-30T03:21:30;100339.02;;;16.88;98.19
77013;BME280;67260;53.130;17.982;2023-07-30T03:23:57;100345.86;;;16.93;98.15
77013;BME280;67260;53.130;17.982;2023-07-30T03:26:30;100349.70;;;16.98;98.05
77013;BME280;67260;53.130;17.982;2023-07-30T03:29:05;100354.98;;;17.00;97.78
77013;BME280;67260;53.130;17.982;2023-07-30T03:31:35;100354.89;;;17.01;97.70
77013;BME280;67260;53.130;17.982;2023-07-30T03:34:02;100350.61;;;17.04;97.74
77013;BME280;67260;53.130;17.982;2023-07-30T03:36:29;100351.88;;;17.09;97.84
77013;BME280;67260;53.130;17.982;2023-07-30T03:38:55;100355.02;;;17.13;97.94
77013;BME280;67260;53.130;17.982;2023-07-30T03:41:25;100355.23;;;17.13;97.61
77013;BME280;67260;53.130;17.982;2023-07-30T03:43:53;100356.08;;;17.12;97.44
77013;BME280;67260;53.130;17.982;2023-07-30T03:46:23;100352.08;;;17.14;97.43
77013;BME280;67260;53.130;17.982;2023-07-30T03:49:01;100350.11;;;17.17;97.47
77013;BME280;67260;53.130;17.982;2023-07-30T03:51:37;100351.46;;;17.20;97.54
77013;BME280;67260;53.130;17.982;2023-07-30T03:54:07;100349.27;;;17.21;97.30
77013;BME280;67260;53.130;17.982;2023-07-30T03:56:34;100350.09;;;17.22;97.42
77013;BME280;67260;53.130;17.982;2023-07-30T03:59:00;100352.84;;;17.26;97.57
77013;BME280;67260;53.130;17.982;2023-07-30T04:01:28;100358.41;;;17.31;97.59
77013;BME280;67260;53.130;17.982;2023-07-30T04:03:55;100368.35;;;17.32;97.69
77013;BME280;67260;53.130;17.982;2023-07-30T04:06:22;100368.75;;;17.28;97.25
77013;BME280;67260;53.130;17.982;2023-07-30T04:08:50;100370.09;;;17.27;97.31
77013;BME280;67260;53.130;17.982;2023-07-30T04:11:17;100368.58;;;17.27;97.56
77013;BME280;67260;53.130;17.982;2023-07-30T04:13:43;100366.86;;;17.26;97.51
77013;BME280;67260;53.130;17.982;2023-07-30T04:16:10;100360.84;;;17.25;97.43
77013;BME280;67260;53.130;17.982;2023-07-30T04:18:37;100360.90;;;17.26;97.67
77013;BME280;67260;53.130;17.982;2023-07-30T04:21:04;100367.89;;;17.27;97.67
77013;BME280;67260;53.130;17.982;2023-07-30T04:23:30;100367.02;;;17.28;97.75
77013;BME280;67260;53.130;17.982;2023-07-30T04:25:57;100371.26;;;17.25;97.49
77013;BME280;67260;53.130;17.982;2023-07-30T04:28:24;100369.50;;;17.27;97.76
77013;BME280;67260;53.130;17.982;2023-07-30T04:30:51;100366.84;;;17.31;97.96
77013;BME280;67260;53.130;17.982;2023-07-30T04:33:17;100376.57;;;17.33;97.67
77013;BME280;67260;53.130;17.982;2023-07-30T04:35:44;100379.64;;;17.35;97.95
77013;BME280;67260;53.130;17.982;2023-07-30T04:38:11;100385.54;;;17.34;97.75
77013;BME280;67260;53.130;17.982;2023-07-30T04:40:38;100389.89;;;17.35;97.82
77013;BME280;67260;53.130;17.982;2023-07-30T04:43:05;100394.80;;;17.37;97.97
77013;BME280;67260;53.130;17.982;2023-07-30T04:45:32;100398.95;;;17.39;97.85
77013;BME280;67260;53.130;17.982;2023-07-30T04:47:59;100402.25;;;17.44;98.07
77013;BME280;67260;53.130;17.982;2023-07-30T04:50:26;100400.28;;;17.47;97.86
77013;BME280;67260;53.130;17.982;2023-07-30T04:52:52;100404.21;;;17.47;97.76
77013;BME280;67260;53.130;17.982;2023-07-30T04:55:19;100407.76;;;17.49;97.60
77013;BME280;67260;53.130;17.982;2023-07-30T04:57:46;100407.13;;;17.51;97.68
77013;BME280;67260;53.130;17.982;2023-07-30T05:00:13;100405.02;;;17.57;97.91
77013;BME280;67260;53.130;17.982;2023-07-30T05:02:40;100403.59;;;17.61;97.75
77013;BME280;67260;53.130;17.982;2023-07-30T05:05:07;100405.33;;;17.64;97.40
77013;BME280;67260;53.130;17.982;2023-07-30T05:07:33;100405.58;;;17.70;97.34
77013;BME280;67260;53.130;17.982;2023-07-30T05:10:00;100405.02;;;17.79;97.32
77013;BME280;67260;53.130;17.982;2023-07-30T05:12:27;100404.63;;;17.89;97.26
77013;BME280;67260;53.130;17.982;2023-07-30T05:14:53;100405.42;;;18.00;97.33
77013;BME280;67260;53.130;17.982;2023-07-30T05:17:20;100409.77;;;18.11;97.06
77013;BME280;67260;53.130;17.982;2023-07-30T05:19:47;100407.58;;;18.15;97.06
77013;BME280;67260;53.130;17.982;2023-07-30T05:22:13;100409.73;;;18.19;96.97
77013;BME280;67260;53.130;17.982;2023-07-30T05:24:40;100408.84;;;18.22;96.92
77013;BME280;67260;53.130;17.982;2023-07-30T05:27:07;100413.91;;;18.27;96.63
77013;BME280;67260;53.130;17.982;2023-07-30T05:29:33;100417.41;;;18.31;96.61
77013;BME280;67260;53.130;17.982;2023-07-30T05:32:00;100417.05;;;18.35;96.55
77013;BME280;67260;53.130;17.982;2023-07-30T05:34:27;100416.63;;;18.39;96.37
77013;BME280;67260;53.130;17.982;2023-07-30T05:36:53;100415.78;;;18.44;96.17
77013;BME280;67260;53.130;17.982;2023-07-30T05:39:20;100420.05;;;18.51;96.27
77013;BME280;67260;53.130;17.982;2023-07-30T05:41:47;100417.86;;;18.59;95.90
77013;BME280;67260;53.130;17.982;2023-07-30T05:44:13;100419.45;;;18.68;95.42
77013;BME280;67260;53.130;17.982;2023-07-30T05:46:40;100423.33;;;18.70;95.10
77013;BME280;67260;53.130;17.982;2023-07-30T05:49:07;100428.27;;;18.76;95.02
77013;BME280;67260;53.130;17.982;2023-07-30T05:51:33;100424.83;;;18.83;95.02
77013;BME280;67260;53.130;17.982;2023-07-30T05:54:00;100428.16;;;18.99;94.60
77013;BME280;67260;53.130;17.982;2023-07-30T05:56:27;100424.88;;;19.18;93.95
77013;BME280;67260;53.130;17.982;2023-07-30T05:58:53;100426.59;;;19.32;93.78
77013;BME280;67260;53.130;17.982;2023-07-30T06:01:21;100427.38;;;19.40;93.44
77013;BME280;67260;53.130;17.982;2023-07-30T06:03:47;100427.81;;;19.41;93.09
77013;BME280;67260;53.130;17.982;2023-07-30T06:06:14;100431.69;;;19.44;92.85
77013;BME280;67260;53.130;17.982;2023-07-30T06:08:41;100431.14;;;19.47;92.96
77013;BME280;67260;53.130;17.982;2023-07-30T06:11:07;100433.36;;;19.53;93.61
77013;BME280;67260;53.130;17.982;2023-07-30T06:13:34;100431.84;;;19.65;93.41
77013;BME280;67260;53.130;17.982;2023-07-30T06:16:01;100437.97;;;19.69;92.89
77013;BME280;67260;53.130;17.982;2023-07-30T06:18:28;100441.70;;;19.68;92.85
77013;BME280;67260;53.130;17.982;2023-07-30T06:20:55;100441.98;;;19.62;92.53
77013;BME280;67260;53.130;17.982;2023-07-30T06:23:22;100441.77;;;19.60;92.76
77013;BME280;67260;53.130;17.982;2023-07-30T06:25:49;100449.11;;;19.54;92.25
77013;BME280;67260;53.130;17.982;2023-07-30T06:28:16;100447.63;;;19.50;92.26
77013;BME280;67260;53.130;17.982;2023-07-30T06:30:43;100444.42;;;19.54;92.45
77013;BME280;67260;53.130;17.982;2023-07-30T06:33:10;100447.09;;;19.64;92.27
77013;BME280;67260;53.130;17.982;2023-07-30T06:35:37;100445.61;;;19.73;92.58
77013;BME280;67260;53.130;17.982;2023-07-30T06:38:05;100442.23;;;19.80;92.22
77013;BME280;67260;53.130;17.982;2023-07-30T06:40:32;100438.86;;;19.98;92.39
77013;BME280;67260;53.130;17.982;2023-07-30T06:42:59;100442.02;;;20.43;91.43
77013;BME280;67260;53.130;17.982;2023-07-30T06:45:26;100442.38;;;20.68;90.61
77013;BME280;67260;53.130;17.982;2023-07-30T06:47:52;100440.88;;;21.09;90.16
77013;BME280;67260;53.130;17.982;2023-07-30T06:50:19;100439.42;;;22.62;85.72
77013;BME280;67260;53.130;17.982;2023-07-30T06:52:46;100441.46;;;22.56;85.85
77013;BME280;67260;53.130;17.982;2023-07-30T06:55:12;100442.72;;;22.47;85.20
77013;BME280;67260;53.130;17.982;2023-07-30T06:57:39;100439.15;;;23.09;84.54
77013;BME280;67260;53.130;17.982;2023-07-30T07:00:06;100434.69;;;24.22;81.77
77013;BME280;67260;53.130;17.982;2023-07-30T07:02:33;100432.91;;;25.63;75.49
77013;BME280;67260;53.130;17.982;2023-07-30T07:05:00;100436.94;;;25.36;76.88
77013;BME280;67260;53.130;17.982;2023-07-30T07:07:27;100440.90;;;25.48;77.12
77013;BME280;67260;53.130;17.982;2023-07-30T07:09:53;100440.70;;;25.23;77.58
77013;BME280;67260;53.130;17.982;2023-07-30T07:12:20;100441.52;;;24.92;77.49
77013;BME280;67260;53.130;17.982;2023-07-30T07:14:47;100435.20;;;25.27;76.87
77013;BME280;67260;53.130;17.982;2023-07-30T07:17:13;100432.16;;;26.43;75.67
77013;BME280;67260;53.130;17.982;2023-07-30T07:19:40;100437.90;;;25.95;75.17
77013;BME280;67260;53.130;17.982;2023-07-30T07:22:07;100438.23;;;25.45;76.22
77013;BME280;67260;53.130;17.982;2023-07-30T07:24:33;100437.27;;;24.83;76.94
77013;BME280;67260;53.130;17.982;2023-07-30T07:27:00;100444.51;;;24.33;78.39
77013;BME280;67260;53.130;17.982;2023-07-30T07:29:27;100437.95;;;23.83;78.70
77013;BME280;67260;53.130;17.982;2023-07-30T07:31:56;100444.48;;;23.82;78.37
77013;BME280;67260;53.130;17.982;2023-07-30T07:34:27;100449.97;;;23.95;78.84
77013;BME280;67260;53.130;17.982;2023-07-30T07:36:56;100450.42;;;24.13;77.80
77013;BME280;67260;53.130;17.982;2023-07-30T07:39:23;100452.80;;;24.24;78.76
77013;BME280;67260;53.130;17.982;2023-07-30T07:41:50;100447.33;;;24.12;78.61
77013;BME280;67260;53.130;17.982;2023-07-30T07:44:16;100451.14;;;24.44;77.27
77013;BME280;67260;53.130;17.982;2023-07-30T07:46:43;100451.38;;;25.44;72.59
77013;BME280;67260;53.130;17.982;2023-07-30T07:49:10;100452.23;;;25.23;74.21
77013;BME280;67260;53.130;17.982;2023-07-30T07:51:36;100453.65;;;24.81;76.85
77013;BME280;67260;53.130;17.982;2023-07-30T07:54:03;100457.23;;;24.43;75.40
77013;BME280;67260;53.130;17.982;2023-07-30T07:56:31;100456.50;;;24.17;76.40
77013;BME280;67260;53.130;17.982;2023-07-30T07:58:58;100454.34;;;23.86;77.63
77013;BME280;67260;53.130;17.982;2023-07-30T08:01:24;100457.69;;;23.48;77.38
77013;BME280;67260;53.130;17.982;2023-07-30T08:03:51;100461.64;;;23.30;78.16
77013;BME280;67260;53.130;17.982;2023-07-30T08:06:18;100463.80;;;23.31;78.39
77013;BME280;67260;53.130;17.982;2023-07-30T08:08:44;100460.02;;;23.51;78.85
77013;BME280;67260;53.130;17.982;2023-07-30T08:11:11;100463.41;;;23.87;76.04
77013;BME280;67260;53.130;17.982;2023-07-30T08:13:38;100463.73;;;24.04;76.34
77013;BME280;67260;53.130;17.982;2023-07-30T08:16:05;100468.10;;;23.85;75.39
77013;BME280;67260;53.130;17.982;2023-07-30T08:18:32;100473.54;;;24.18;73.85
77013;BME280;67260;53.130;17.982;2023-07-30T08:21:00;100468.53;;;24.60;73.41
77013;BME280;67260;53.130;17.982;2023-07-30T08:23:27;100475.17;;;24.90;71.84
77013;BME280;67260;53.130;17.982;2023-07-30T08:25:54;100477.15;;;24.66;71.26
77013;BME280;67260;53.130;17.982;2023-07-30T08:28:21;100482.02;;;24.34;72.51
77013;BME280;67260;53.130;17.982;2023-07-30T08:30:48;100485.53;;;23.97;74.01
77013;BME280;67260;53.130;17.982;2023-07-30T08:33:15;100482.91;;;23.85;73.44
77013;BME280;67260;53.130;17.982;2023-07-30T08:35:42;100487.55;;;24.07;73.67
77013;BME280;67260;53.130;17.982;2023-07-30T08:38:09;100488.59;;;23.91;73.55
77013;BME280;67260;53.130;17.982;2023-07-30T08:40:36;100494.61;;;23.69;76.05
77013;BME280;67260;53.130;17.982;2023-07-30T08:43:03;100494.12;;;23.80;76.42
77013;BME280;67260;53.130;17.982;2023-07-30T08:45:38;100499.26;;;23.75;73.84
77013;BME280;67260;53.130;17.982;2023-07-30T08:48:05;100498.90;;;23.56;76.42
77013;BME280;67260;53.130;17.982;2023-07-30T08:50:33;100500.20;;;23.48;75.48
77013;BME280;67260;53.130;17.982;2023-07-30T08:53:02;100496.63;;;23.41;76.68
77013;BME280;67260;53.130;17.982;2023-07-30T08:55:36;100492.77;;;23.35;75.29
77013;BME280;67260;53.130;17.982;2023-07-30T08:58:23;100491.48;;;23.12;76.19
77013;BME280;67260;53.130;17.982;2023-07-30T09:01:01;100491.80;;;23.10;77.37
77013;BME280;67260;53.130;17.982;2023-07-30T09:03:37;100490.26;;;24.23;74.88
77013;BME280;67260;53.130;17.982;2023-07-30T09:06:28;100489.98;;;25.99;69.07
77013;BME280;67260;53.130;17.982;2023-07-30T09:08:55;100488.33;;;27.48;68.56
77013;BME280;67260;53.130;17.982;2023-07-30T09:14:19;100500.58;;;26.95;67.50
77013;BME280;67260;53.130;17.982;2023-07-30T09:20:17;100505.64;;;25.32;69.30
77013;BME280;67260;53.130;17.982;2023-07-30T09:22:46;100509.35;;;24.93;72.46
77013;BME280;67260;53.130;17.982;2023-07-30T09:25:31;100507.40;;;25.28;68.67
77013;BME280;67260;53.130;17.982;2023-07-30T09:28:00;100505.91;;;25.77;70.59
77013;BME280;67260;53.130;17.982;2023-07-30T09:30:27;100504.01;;;26.36;71.15
77013;BME280;67260;53.130;17.982;2023-07-30T09:32:56;100503.17;;;27.93;66.20
77013;BME280;67260;53.130;17.982;2023-07-30T09:35:24;100507.46;;;29.04;66.04
77013;BME280;67260;53.130;17.982;2023-07-30T09:38:05;100506.56;;;29.04;65.42
77013;BME280;67260;53.130;17.982;2023-07-30T09:40:37;100511.20;;;28.43;65.96
77013;BME280;67260;53.130;17.982;2023-07-30T09:43:05;100510.65;;;27.83;66.91
77013;BME280;67260;53.130;17.982;2023-07-30T09:45:34;100511.31;;;27.44;65.35
77013;BME280;67260;53.130;17.982;2023-07-30T09:48:04;100511.59;;;27.35;66.07
77013;BME280;67260;53.130;17.982;2023-07-30T09:50:35;100508.54;;;27.88;64.92
77013;BME280;67260;53.130;17.982;2023-07-30T09:53:04;100513.50;;;27.42;66.00
77013;BME280;67260;53.130;17.982;2023-07-30T09:55:40;100516.58;;;27.03;67.25
77013;BME280;67260;53.130;17.982;2023-07-30T09:58:26;100506.94;;;27.26;66.43
77013;BME280;67260;53.130;17.982;2023-07-30T10:00:54;100503.05;;;28.55;61.81
77013;BME280;67260;53.130;17.982;2023-07-30T10:03:23;100505.96;;;29.29;61.89
77013;BME280;67260;53.130;17.982;2023-07-30T10:05:52;100504.04;;;29.82;61.07
77013;BME280;67260;53.130;17.982;2023-07-30T10:08:25;100500.94;;;30.14;60.91
77013;BME280;67260;53.130;17.982;2023-07-30T10:10:54;100503.98;;;30.65;60.24
77013;BME280;67260;53.130;17.982;2023-07-30T10:13:22;100505.97;;;31.12;56.01
77013;BME280;67260;53.130;17.982;2023-07-30T10:15:50;100505.48;;;31.29;54.66
77013;BME280;67260;53.130;17.982;2023-07-30T10:18:17;100510.48;;;31.15;57.36
77013;BME280;67260;53.130;17.982;2023-07-30T10:20:54;100509.16;;;31.17;54.43
77013;BME280;67260;53.130;17.982;2023-07-30T10:26:11;100503.23;;;31.24;53.79
77013;BME280;67260;53.130;17.982;2023-07-30T10:28:39;100501.65;;;30.53;57.66
77013;BME280;67260;53.130;17.982;2023-07-30T10:31:13;100504.83;;;30.67;57.72
77013;BME280;67260;53.130;17.982;2023-07-30T10:33:49;100502.70;;;30.91;56.81
77013;BME280;67260;53.130;17.982;2023-07-30T10:39:10;100493.67;;;31.78;54.17
77013;BME280;67260;53.130;17.982;2023-07-30T10:41:37;100498.86;;;31.22;57.93
77013;BME280;67260;53.130;17.982;2023-07-30T10:44:05;100499.46;;;31.12;57.34
77013;BME280;67260;53.130;17.982;2023-07-30T10:46:31;100498.86;;;31.48;54.40
77013;BME280;67260;53.130;17.982;2023-07-30T10:48:58;100499.23;;;31.57;52.50
77013;BME280;67260;53.130;17.982;2023-07-30T10:51:25;100496.33;;;31.39;51.74
77013;BME280;67260;53.130;17.982;2023-07-30T10:53:52;100501.55;;;30.89;51.95
77013;BME280;67260;53.130;17.982;2023-07-30T10:56:23;100499.98;;;30.73;51.41
77013;BME280;67260;53.130;17.982;2023-07-30T10:58:52;100500.08;;;30.90;53.39
77013;BME280;67260;53.130;17.982;2023-07-30T11:01:20;100497.20;;;31.04;48.03
77013;BME280;67260;53.130;17.982;2023-07-30T11:03:50;100493.20;;;30.88;49.71
77013;BME280;67260;53.130;17.982;2023-07-30T11:06:22;100496.39;;;30.73;50.02
77013;BME280;67260;53.130;17.982;2023-07-30T11:08:49;100494.69;;;30.88;49.81
77013;BME280;67260;53.130;17.982;2023-07-30T11:11:16;100493.57;;;31.17;49.20
77013;BME280;67260;53.130;17.982;2023-07-30T11:13:46;100490.73;;;31.15;47.01
77013;BME280;67260;53.130;17.982;2023-07-30T11:16:14;100490.86;;;30.64;49.03
77013;BME280;67260;53.130;17.982;2023-07-30T11:18:42;100487.94;;;30.58;47.18
77013;BME280;67260;53.130;17.982;2023-07-30T11:21:22;100484.64;;;30.04;47.65
77013;BME280;67260;53.130;17.982;2023-07-30T11:23:50;100480.23;;;29.84;48.76
77013;BME280;67260;53.130;17.982;2023-07-30T11:26:19;100474.38;;;29.80;47.43
77013;BME280;67260;53.130;17.982;2023-07-30T11:28:46;100470.31;;;29.58;48.95
77013;BME280;67260;53.130;17.982;2023-07-30T11:31:16;100471.14;;;30.01;45.73
77013;BME280;67260;53.130;17.982;2023-07-30T11:33:44;100470.12;;;30.18;46.54
77013;BME280;67260;53.130;17.982;2023-07-30T11:36:19;100474.70;;;30.11;43.89
77013;BME280;67260;53.130;17.982;2023-07-30T11:38:48;100472.66;;;30.16;45.78
77013;BME280;67260;53.130;17.982;2023-07-30T11:41:16;100467.39;;;30.34;44.80
77013;BME280;67260;53.130;17.982;2023-07-30T11:43:44;100466.66;;;30.18;44.77
77013;BME280;67260;53.130;17.982;2023-07-30T11:46:16;100474.55;;;29.75;44.07
77013;BME280;67260;53.130;17.982;2023-07-30T11:48:45;100473.02;;;29.40;44.69
77013;BME280;67260;53.130;17.982;2023-07-30T11:54:01;100467.60;;;29.62;44.82
77013;BME280;67260;53.130;17.982;2023-07-30T11:56:32;100464.59;;;29.82;44.73
77013;BME280;67260;53.130;17.982;2023-07-30T11:59:05;100470.49;;;29.90;43.08
77013;BME280;67260;53.130;17.982;2023-07-30T12:01:35;100466.31;;;29.73;43.76
77013;BME280;67260;53.130;17.982;2023-07-30T12:04:05;100459.33;;;29.55;45.14
77013;BME280;67260;53.130;17.982;2023-07-30T12:06:49;100456.75;;;29.77;45.12
77013;BME280;67260;53.130;17.982;2023-07-30T12:09:21;100452.36;;;30.03;44.16
77013;BME280;67260;53.130;17.982;2023-07-30T12:14:26;100449.32;;;30.24;44.14
77013;BME280;67260;53.130;17.982;2023-07-30T12:16:57;100447.61;;;30.41;43.56
77013;BME280;67260;53.130;17.982;2023-07-30T12:19:24;100446.36;;;30.51;43.34
77013;BME280;67260;53.130;17.982;2023-07-30T12:21:51;100442.62;;;30.47;41.68
77013;BME280;67260;53.130;17.982;2023-07-30T12:24:17;100438.30;;;29.95;42.67
77013;BME280;67260;53.130;17.982;2023-07-30T12:26:53;100434.86;;;29.90;42.71
77013;BME280;67260;53.130;17.982;2023-07-30T12:29:29;100436.98;;;29.85;42.78
77013;BME280;67260;53.130;17.982;2023-07-30T12:32:05;100428.02;;;29.53;41.02
77013;BME280;67260;53.130;17.982;2023-07-30T12:34:33;100430.93;;;29.14;41.80
77013;BME280;67260;53.130;17.982;2023-07-30T12:37:00;100426.75;;;29.04;43.56
77013;BME280;67260;53.130;17.982;2023-07-30T12:39:27;100423.17;;;28.88;44.31
77013;BME280;67260;53.130;17.982;2023-07-30T12:41:58;100423.88;;;28.91;43.98
77013;BME280;67260;53.130;17.982;2023-07-30T12:44:31;100423.67;;;28.87;43.93
77013;BME280;67260;53.130;17.982;2023-07-30T12:47:20;100423.82;;;28.91;42.52
77013;BME280;67260;53.130;17.982;2023-07-30T12:50:01;100424.48;;;28.86;42.81
77013;BME280;67260;53.130;17.982;2023-07-30T12:52:34;100419.91;;;28.82;43.54
77013;BME280;67260;53.130;17.982;2023-07-30T12:55:02;100416.59;;;28.90;43.93
77013;BME280;67260;53.130;17.982;2023-07-30T12:57:31;100411.90;;;28.81;42.74
77013;BME280;67260;53.130;17.982;2023-07-30T13:00:00;100411.20;;;28.59;42.58
77013;BME280;67260;53.130;17.982;2023-07-30T13:02:29;100415.20;;;28.20;42.95
77013;BME280;67260;53.130;17.982;2023-07-30T13:04:57;100411.70;;;27.82;43.52
77013;BME280;67260;53.130;17.982;2023-07-30T13:07:24;100408.59;;;27.57;45.38